General Electric Net Profit Margin 2010-2022 | GE

Current and historical net profit margin for General Electric (GE) from 2010 to 2022. Net profit margin can be defined as net Income as a portion of total sales revenue. General Electric net profit margin for the three months ending June 30, 2022 was .
General Electric Net Profit Margin Historical Data
Date TTM Revenue TTM Net Income Net Margin
2022-06-30 $74.56B $-4.65B -6.23%
2022-03-31 $74.17B $-4.98B -6.71%
2021-12-31 $74.20B $-6.76B -9.11%
2021-09-30 $74.76B $-0.41B -0.55%
2021-06-30 $74.86B $-2.81B -3.75%
2021-03-31 $73.41B $-3.80B -5.18%
2020-12-31 $75.83B $5.23B 6.90%
2020-09-30 $76.07B $3.33B 4.37%
2020-06-30 $80.90B $-4.95B -6.12%
2020-03-31 $87.51B $-2.83B -3.24%
2019-12-31 $90.22B $-5.44B -6.03%
2019-09-30 $85.65B $-5.40B -6.31%
2019-06-30 $85.68B $-18.75B -21.88%
2019-03-31 $91.43B $-18.07B -19.76%
2018-12-31 $97.01B $-22.80B -23.50%
2018-09-30 $92.98B $-34.38B -36.97%
2018-06-30 $100.25B $-10.25B -10.22%
2018-03-31 $100.19B $-9.99B -9.97%
2017-12-31 $99.28B $-8.92B -8.98%
2017-09-30 $115.50B $4.24B 3.67%
2017-06-30 $114.11B $4.91B 4.30%
2017-03-31 $118.51B $6.79B 5.73%
2016-12-31 $119.47B $6.85B 5.73%
2016-09-30 $124.50B $10.97B 8.81%
2016-06-30 $123.26B $11.48B 9.32%
2016-03-31 $118.99B $7.37B 6.19%
2015-12-31 $117.39B $-6.14B -5.23%
2015-09-30 $102.76B $-7.28B -7.08%
2015-06-30 $106.84B $-6.24B -5.84%
2015-03-31 $109.88B $-1.34B -1.22%
2014-12-31 $117.18B $15.23B 13.00%
2014-09-30 $105.50B $13.29B 12.59%
2014-06-30 $109.05B $12.94B 11.87%
2014-03-31 $111.85B $12.53B 11.20%
2013-12-31 $113.25B $13.06B 11.53%
2013-09-30 $144.62B $13.86B 9.59%
2013-06-30 $145.21B $14.16B 9.75%
2013-03-31 $146.55B $14.13B 9.64%
2012-12-31 $146.68B $13.64B 9.30%
2012-09-30 $144.96B $13.36B 9.22%
2012-06-30 $144.07B $12.21B 8.48%
2012-03-31 $143.29B $12.80B 8.93%
2011-12-31 $146.54B $13.12B 8.95%
2011-09-30 $150.38B $13.85B 9.21%
2011-06-30 $150.39B $13.49B 8.97%
2011-03-31 $151.69B $12.83B 8.46%
2010-12-31 $149.57B $11.34B 7.58%
2010-09-30 $147.60B $9.82B 6.65%
2010-06-30 $150.02B $10.26B 6.84%
2010-03-31 $152.20B $9.84B 6.47%
2009-12-31 $154.44B $10.73B 6.94%
Sector Industry Market Cap Revenue
Multi-Sector Conglomerates Diversified Operations $88.898B $74.196B
General Electric Co. is popular for its LEAP aircraft engines, heavy-duty gas turbines, Haliade-X and Cypress wind turbines, and healthcare solutions. Its products and services range from jet engines, airframes, energy production solutions to offshore wind turbines, technologies in medical imaging, and leasing and financing services, etc. It has the following operating segments: Power produces steam & gas turbines, power generation services, and generators. The Power segment includes Gas Power and Power Portfolio. While Gas Power includes GE's gas lifecycle business, Power Portfolio comprises Steam Power Systems, GE Hitachi Nuclear and Power Conversion businesses. Aviation offers commercial jet engines and components, and aftermarket services. Healthcare provides technologies in patient monitoring, medical imaging, drug discovery, patient monitoring. Renewable Energy provides offshore wind turbines, high-voltage equipment, blades for wind turbines (onshore and offshore), and other products and services.
Stock Name Country Market Cap PE Ratio
Danaher (DHR) United States $218.583B 28.35
3M (MMM) United States $85.589B 15.19
Carlisle (CSL) United States $16.324B 19.34
ITT (ITT) United States $6.895B 20.84
Federal Signal (FSS) United States $2.608B 24.58
Griffon (GFF) United States $1.905B 10.05
Vector Group (VGR) United States $1.684B 10.67
Lsb Industries (LXU) United States $1.186B 5.08
Steel Partners Holdings LP (SPLP) United States $1.002B 13.53
National Presto Industries (NPK) United States $0.551B 32.81
INNOVATE (VATE) United States $0.131B 0.00